Pagrindinis puslapis
METAR-TAF:

METAR-TAF

Oro uostai :

Paksė, Laosas

platuma: 15-08-02N, ilguma: 105-46-55E, Aukštis: 107 m

Dabartinis oras

Ataskaita buvo paskelbta 24 minutes, ne 08:00 UTC
Vėjas 8 kt iš Šiaurės
Temperatūra 30°C
Drėgmė 40%
Slėgis 1012 hPa
Matomumas 10 km arba daugiau
Su prošvaistėmis ne aukštis 2800 ft

METAR: VLPS 170800Z 36008KT 9999 BKN028 30/15 Q1012 NOSIG

Laikas: 15:24 (08:24 UTC)

Prognozė

Ataskaita buvo paskelbta 3 valandos ir 24 minutes, ne 05:00 UTC
Prognozė galioja nuo 17 metu 06 UTC su 18 metu 06 UTC
Vėjas 8 kt iš Šiaurės
Matomumas: 9000 m
Mažai debesys ne aukštis 2000 ft
Išsisklaidę debesys ne aukštis 5000 ft

TAF: VLPS 170500Z 1706/1806 36008KT 9000 FEW020 SCT050

Orai ataskaitas ir orų prognozės (METAR, TAF).

turimą stotys yra geltonos ir raudonos taškus žemėlapyje.

Perkelti pele per norėdami pamatyti stoties vardą.

Tada spustelėkite, norėdami matyti oro stebėjimo ir prognozės.

Norėdami pakeisti žemėlapį: spustelėkite ant žalios mygtukų su juodo kryžiaus žemyn,; žalią mygtuką su brūkšneliu, jei norite nutolinti; arba žalių rodyklių gretimoms žemėlapius.


METAR-TAF: